MHTG/TGU METAR and TAF weather

Enter ICAO airport designator
Station Type Date Time Source
MHTG METAR 2019/12/13 17:00 UTC NOAA

MHTG 131700Z 36012KT 9999 FEW030 SCT250 24/15 Q1019 A3009 NOSIG


Station Type Date Time Source
MHTG Decoded METAR 2019/12/13 17:00 UTC NOAA

Tegucigalpa, Honduras (MHTG) 14-03N 087-13W 1007M
Dec 13, 2019 - 12:00 PM EST / 2019.12.13 1700 UTC
Wind: from the N (360 degrees) at 14 MPH (12 KT):0
Visibility: greater than 7 mile(s):0
Sky conditions: partly cloudy
Temperature: 75 F (24 C)
Dew Point: 59 F (15 C)
Relative Humidity: 57%
Pressure (altimeter): 30.09 in. Hg (1018 hPa)
ob: MHTG 131700Z 36012KT 9999 FEW030 SCT250 24/15 Q1019 A3009 NOSIG
cycle: 17

Station Type Date Time Source
MHTG TAF 2019/12/13 18:38 UTC NOAA

TAF MHTG 131625Z 1318/1418 05010KT 9999 SCT030 TX27/1320Z TN16/1412Z
BECMG 1404/1406 35004KT FEW012 SCT026
BECMG 1415/1417 05008KT SCT030

Example: see airport list